createdAt,value
2019-02-11T00:02:34.489Z,5.40
2019-02-11T00:05:02.546Z,5.30
2019-02-11T00:07:30.567Z,5.40
2019-02-11T00:09:58.334Z,5.30
2019-02-11T00:55:38.878Z,4.80
2019-02-11T04:55:28.595Z,3.10
2019-02-11T04:57:57.002Z,3.10
2019-02-11T05:00:24.810Z,3.00
2019-02-11T05:02:52.427Z,3.00
2019-02-11T05:05:20.353Z,3.00
2019-02-11T05:07:48.052Z,3.00
2019-02-11T05:10:15.603Z,2.80
2019-02-11T05:12:43.240Z,3.60
2019-02-11T05:15:11.038Z,2.80
2019-02-11T05:17:38.664Z,2.70
2019-02-11T05:20:06.651Z,3.10
2019-02-11T05:22:34.409Z,2.60
2019-02-11T05:25:02.027Z,2.70
2019-02-11T05:27:29.815Z,2.80
2019-02-11T05:29:57.635Z,3.00
2019-02-11T05:32:25.268Z,2.70
2019-02-11T05:34:52.928Z,2.60
2019-02-11T05:37:20.587Z,2.90
2019-02-11T05:39:48.327Z,2.60
2019-02-11T05:42:16.019Z,2.50
2019-02-11T05:44:53.227Z,2.60
2019-02-11T05:47:13.022Z,2.60
2019-02-11T05:49:40.687Z,2.70
2019-02-11T05:52:38.931Z,2.60
2019-02-11T05:55:06.661Z,2.70
2019-02-11T05:57:34.337Z,2.60
2019-02-11T06:00:02.404Z,2.50
2019-02-11T06:02:30.200Z,2.50
2019-02-11T06:04:57.898Z,2.60
2019-02-11T06:07:25.447Z,2.60
2019-02-11T06:09:53.427Z,2.70
2019-02-11T06:12:21.082Z,2.60
2019-02-11T06:14:48.605Z,2.70
2019-02-11T06:17:16.430Z,2.70
2019-02-11T06:19:44.039Z,2.70
2019-02-11T06:22:11.681Z,2.90
2019-02-11T06:24:39.296Z,2.80
2019-02-11T06:27:07.428Z,3.50
2019-02-11T06:29:35.005Z,2.90
2019-02-11T06:32:02.723Z,3.30
2019-02-11T06:34:30.349Z,2.90
2019-02-11T06:36:58.109Z,3.60
2019-02-11T06:39:25.639Z,2.90
2019-02-11T06:41:53.301Z,2.80
2019-02-11T06:44:20.895Z,2.80
2019-02-11T06:46:48.540Z,2.70
2019-02-11T06:49:16.132Z,2.70
2019-02-11T06:51:43.735Z,2.80
2019-02-11T06:54:11.305Z,2.70
2019-02-11T06:56:38.968Z,3.60
2019-02-11T06:59:06.662Z,2.80
2019-02-11T07:01:34.396Z,2.70
2019-02-11T07:04:02.085Z,2.90
2019-02-11T07:06:29.881Z,3.10
2019-02-11T07:11:25.172Z,3.10
2019-02-11T07:13:52.891Z,4.20
2019-02-11T07:16:20.521Z,3.20
2019-02-11T07:18:48.236Z,3.20
2019-02-11T07:21:16.232Z,3.20
2019-02-11T07:23:43.892Z,3.50
2019-02-11T07:26:11.531Z,3.30
2019-02-11T07:28:39.586Z,3.20
2019-02-11T07:31:07.123Z,3.30
2019-02-11T07:33:34.673Z,3.30
2019-02-11T07:36:02.407Z,3.30
2019-02-11T07:38:30.055Z,3.30
2019-02-11T07:40:57.650Z,3.40
2019-02-11T07:43:47.884Z,3.40
2019-02-11T07:46:38.210Z,3.90
2019-02-11T07:49:05.845Z,3.60
2019-02-11T07:51:33.523Z,3.40
2019-02-11T07:54:01.187Z,3.40
2019-02-11T07:56:28.815Z,3.50
2019-02-11T07:58:56.471Z,3.40
2019-02-11T08:01:24.237Z,3.50
2019-02-11T08:03:51.791Z,3.60
2019-02-11T08:06:19.415Z,3.70
2019-02-11T08:08:47.308Z,3.70
2019-02-11T08:11:14.862Z,3.60
2019-02-11T08:13:42.396Z,3.70
2019-02-11T08:16:10.334Z,3.70
2019-02-11T08:18:37.893Z,3.70
2019-02-11T08:21:05.515Z,4.00
2019-02-11T08:23:33.240Z,4.00
2019-02-11T08:26:00.833Z,3.90
2019-02-11T08:28:32.172Z,4.30
2019-02-11T08:30:59.820Z,4.30
2019-02-11T08:33:27.371Z,4.40
2019-02-11T08:35:55.109Z,4.40
2019-02-11T08:38:22.804Z,4.80
2019-02-11T08:40:50.481Z,4.30
2019-02-11T08:43:18.181Z,4.40
2019-02-11T08:45:47.060Z,5.10
2019-02-11T08:48:15.042Z,4.50
2019-02-11T08:50:42.630Z,4.60
2019-02-11T08:53:10.295Z,4.60
2019-02-11T08:55:37.995Z,4.60
2019-02-11T08:58:05.683Z,4.50
2019-02-11T09:00:33.389Z,4.80
2019-02-11T09:03:00.945Z,4.80
2019-02-11T09:05:28.633Z,5.00
2019-02-11T09:07:56.284Z,4.90
2019-02-11T09:10:23.837Z,5.30
2019-02-11T09:12:51.410Z,5.30
2019-02-11T09:17:46.686Z,5.60
2019-02-11T09:20:14.381Z,5.70
2019-02-11T09:22:42.110Z,5.60
2019-02-11T09:25:09.811Z,5.80
2019-02-11T09:27:37.441Z,5.80
2019-02-11T09:30:07.204Z,5.80
2019-02-11T09:32:34.786Z,6.00
2019-02-11T09:35:02.752Z,6.00
2019-02-11T09:37:30.396Z,6.20
2019-02-11T09:39:58.121Z,6.10
2019-02-11T09:42:25.749Z,6.30
2019-02-11T09:44:53.312Z,6.30
2019-02-11T09:47:20.912Z,6.50
2019-02-11T09:50:09.920Z,6.50
2019-02-11T09:52:37.574Z,6.50
2019-02-11T09:55:12.322Z,6.70
2019-02-11T09:57:40.470Z,6.70
2019-02-11T10:00:08.354Z,6.90
2019-02-11T10:02:35.995Z,6.90
2019-02-11T10:05:03.643Z,7.00
2019-02-11T10:07:31.309Z,6.90
2019-02-11T10:09:58.906Z,7.00
2019-02-11T10:12:26.522Z,7.20
2019-02-11T10:14:54.031Z,7.40
2019-02-11T10:17:29.541Z,7.30
2019-02-11T10:19:51.011Z,7.40
2019-02-11T10:24:46.622Z,7.70
2019-02-11T10:27:14.182Z,7.70
2019-02-11T10:29:41.724Z,7.90
2019-02-11T10:32:10.392Z,8.00
2019-02-11T10:34:38.060Z,8.00
2019-02-11T10:37:05.631Z,7.90
2019-02-11T10:39:34.808Z,8.10
2019-02-11T10:42:02.452Z,8.20
2019-02-11T10:44:30.161Z,8.00
2019-02-11T10:46:58.699Z,8.40
2019-02-11T10:49:26.395Z,8.50
2019-02-11T10:51:54.030Z,8.70
2019-02-11T10:54:21.626Z,8.70
2019-02-11T10:56:49.175Z,8.70
2019-02-11T10:59:16.860Z,8.80
2019-02-11T11:01:44.632Z,8.70
2019-02-11T11:04:12.271Z,8.70
2019-02-11T11:06:40.252Z,8.70
2019-02-11T11:09:12.624Z,8.70
2019-02-11T11:11:40.291Z,8.90
2019-02-11T11:14:08.573Z,8.90
2019-02-11T11:16:36.739Z,8.90
2019-02-11T11:19:04.819Z,9.10
2019-02-11T11:21:33.381Z,9.00
2019-02-11T11:24:01.071Z,9.10
2019-02-11T11:26:28.774Z,9.10
2019-02-11T11:28:58.839Z,9.10
2019-02-11T11:31:26.609Z,9.10
2019-02-11T11:33:54.319Z,9.00
2019-02-11T11:36:21.909Z,8.90
2019-02-11T11:38:49.537Z,9.00
2019-02-11T11:41:17.335Z,9.10
2019-02-11T11:43:45.028Z,8.90
2019-02-11T11:46:23.354Z,8.90
2019-02-11T11:48:51.239Z,9.10
2019-02-11T11:53:46.526Z,9.20
2019-02-11T11:56:14.424Z,9.20
2019-02-11T11:58:42.256Z,8.80
2019-02-11T12:01:10.174Z,8.70
2019-02-11T12:03:37.928Z,8.60
2019-02-11T12:06:05.619Z,8.70
2019-02-11T12:08:33.282Z,8.60
2019-02-11T12:11:01.115Z,8.60
2019-02-11T12:13:28.749Z,8.60
2019-02-11T12:15:56.649Z,8.80
2019-02-11T12:18:24.451Z,8.80
2019-02-11T12:20:52.118Z,9.00
2019-02-11T12:23:19.836Z,8.70
2019-02-11T12:25:47.601Z,8.80
2019-02-11T12:28:17.581Z,8.70
2019-02-11T12:30:45.372Z,8.80
2019-02-11T12:33:13.102Z,8.70
2019-02-11T12:35:40.829Z,8.30
2019-02-11T12:38:08.519Z,8.30
2019-02-11T12:40:36.137Z,8.50
2019-02-11T12:43:04.007Z,8.40
2019-02-11T12:45:31.599Z,8.20
2019-02-11T12:47:59.346Z,8.20
2019-02-11T12:50:27.149Z,8.10
2019-02-11T12:52:55.279Z,8.10
2019-02-11T12:55:22.939Z,8.10
2019-02-11T12:57:50.679Z,8.30
2019-02-11T13:00:19.998Z,8.50
2019-02-11T13:02:47.806Z,8.70
2019-02-11T13:05:15.619Z,8.70
2019-02-11T13:07:43.830Z,8.90
2019-02-11T13:10:13.923Z,9.00
2019-02-11T13:12:41.765Z,9.10
2019-02-11T13:15:09.765Z,9.20
2019-02-11T13:17:37.452Z,9.20
2019-02-11T13:20:11.100Z,9.10
2019-02-11T13:22:38.029Z,9.10
2019-02-11T13:25:26.418Z,9.00
2019-02-11T13:27:54.089Z,8.60
2019-02-11T13:30:22.014Z,8.60
2019-02-11T13:32:49.819Z,8.60
2019-02-11T13:35:17.702Z,8.40
2019-02-11T13:37:45.484Z,8.30
2019-02-11T13:40:13.448Z,8.30
2019-02-11T13:42:41.704Z,8.40
2019-02-11T13:45:13.121Z,8.40
2019-02-11T13:47:53.282Z,8.50
2019-02-11T13:50:14.589Z,8.50
2019-02-11T13:52:43.545Z,8.70
2019-02-11T13:55:11.161Z,8.90
2019-02-11T13:57:38.907Z,9.00
2019-02-11T14:00:13.157Z,8.90
2019-02-11T14:02:47.316Z,8.80
2019-02-11T14:05:15.351Z,8.80
2019-02-11T14:07:43.050Z,8.60
2019-02-11T14:10:10.940Z,8.50
2019-02-11T14:12:55.372Z,8.30
2019-02-11T14:15:23.024Z,8.40
2019-02-11T14:18:09.619Z,8.10
2019-02-11T14:20:22.152Z,8.00
2019-02-11T14:22:49.841Z,7.90
2019-02-11T14:25:17.736Z,7.90
2019-02-11T14:27:45.309Z,7.90
2019-02-11T14:30:13.938Z,7.80
2019-02-11T14:32:41.556Z,7.40
2019-02-11T14:35:09.499Z,7.50
2019-02-11T14:37:37.107Z,7.40
2019-02-11T14:40:04.971Z,7.40
2019-02-11T14:42:32.811Z,7.30
2019-02-11T14:45:00.702Z,7.30
2019-02-11T14:47:28.274Z,7.20
2019-02-11T14:49:56.334Z,7.20
2019-02-11T14:52:24.044Z,7.20
2019-02-11T14:54:51.763Z,7.00
2019-02-11T14:57:19.366Z,7.00
2019-02-11T14:59:47.021Z,7.10
2019-02-11T15:02:14.670Z,7.10
2019-02-11T15:04:42.496Z,7.40
2019-02-11T15:07:10.172Z,7.10
2019-02-11T15:09:38.917Z,7.10
2019-02-11T15:12:27.294Z,7.10
2019-02-11T15:14:55.049Z,7.00
2019-02-11T15:17:22.763Z,7.00
2019-02-11T15:20:12.008Z,7.20
2019-02-11T15:22:39.582Z,7.80
2019-02-11T15:25:09.367Z,6.90
2019-02-11T15:27:45.887Z,7.00
2019-02-11T15:30:30.396Z,6.90
2019-02-11T15:32:58.232Z,6.90
2019-02-11T15:35:25.869Z,6.80
2019-02-11T15:37:53.535Z,6.90
2019-02-11T15:40:21.542Z,6.80
2019-02-11T15:42:49.228Z,6.80
2019-02-11T15:45:17.018Z,6.70
2019-02-11T15:47:50.046Z,6.80
2019-02-11T15:50:17.661Z,6.80
2019-02-11T15:52:45.461Z,6.80
2019-02-11T15:55:14.818Z,6.80
2019-02-11T15:57:42.493Z,6.70
2019-02-11T16:00:12.991Z,6.70
2019-02-11T16:02:40.727Z,6.70
2019-02-11T16:05:08.628Z,6.70
2019-02-11T16:07:36.383Z,6.70
2019-02-11T16:10:04.652Z,6.80
2019-02-11T16:12:32.335Z,6.70
2019-02-11T16:14:59.965Z,6.60
2019-02-11T16:17:27.665Z,6.50
2019-02-11T16:19:55.308Z,6.60
2019-02-11T16:22:25.087Z,6.60
2019-02-11T16:24:54.158Z,6.50
2019-02-11T16:27:21.826Z,6.50
2019-02-11T16:29:49.406Z,6.40
2019-02-11T16:34:52.751Z,6.40
2019-02-11T16:37:20.256Z,6.40
2019-02-11T16:39:48.044Z,6.30
2019-02-11T16:42:17.694Z,6.40
2019-02-11T16:44:45.318Z,6.30
2019-02-11T16:47:12.999Z,6.40
2019-02-11T16:49:40.757Z,6.30
2019-02-11T16:52:08.478Z,6.30
2019-02-11T16:54:36.082Z,6.30
2019-02-11T16:57:03.656Z,6.20
2019-02-11T16:59:31.234Z,6.30
2019-02-11T17:01:58.923Z,6.10
2019-02-11T17:04:26.556Z,6.10
2019-02-11T17:06:54.321Z,6.10
2019-02-11T17:09:22.146Z,6.10
2019-02-11T17:11:49.760Z,6.00
2019-02-11T17:14:17.400Z,6.10
2019-02-11T17:16:45.125Z,6.10
2019-02-11T17:19:12.694Z,6.10
2019-02-11T17:21:40.228Z,6.10
2019-02-11T17:24:07.909Z,6.00
2019-02-11T17:26:35.515Z,6.00
2019-02-11T17:29:03.078Z,6.00
2019-02-11T17:31:30.704Z,6.00
2019-02-11T17:33:58.326Z,6.00
2019-02-11T17:36:25.919Z,6.00
2019-02-11T17:38:53.532Z,6.00
2019-02-11T17:41:21.186Z,5.90
2019-02-11T17:43:48.841Z,5.90
2019-02-11T17:46:16.399Z,5.90
2019-02-11T17:48:43.994Z,5.90
2019-02-11T17:51:11.635Z,5.80
2019-02-11T17:53:39.145Z,5.70
2019-02-11T17:56:06.905Z,5.60
2019-02-11T18:01:02.029Z,5.50
2019-02-11T18:03:29.694Z,5.60
2019-02-11T18:05:57.400Z,5.60
2019-02-11T18:08:25.014Z,5.60
2019-02-11T18:10:52.600Z,5.60
2019-02-11T18:13:20.301Z,5.70
2019-02-11T18:15:47.857Z,5.70
2019-02-11T18:18:15.439Z,5.70
2019-02-11T18:20:44.728Z,5.70
2019-02-11T18:23:12.348Z,6.60
2019-02-11T18:25:39.928Z,5.70
2019-02-11T18:28:07.563Z,5.50
2019-02-11T18:30:35.184Z,5.40
2019-02-11T18:33:02.864Z,5.60
2019-02-11T18:35:30.459Z,5.50
2019-02-11T18:37:58.068Z,5.50
2019-02-11T18:40:25.633Z,5.40
2019-02-11T18:42:53.244Z,5.40
2019-02-11T18:45:20.915Z,5.50
2019-02-11T18:47:48.435Z,5.00
2019-02-11T18:50:16.249Z,5.50
2019-02-11T18:52:43.935Z,5.50
2019-02-11T18:55:12.154Z,5.50
2019-02-11T18:57:39.811Z,5.30
2019-02-11T19:00:09.570Z,5.30
2019-02-11T19:02:37.248Z,5.30
2019-02-11T19:05:05.204Z,5.10
2019-02-11T19:07:32.825Z,5.10
2019-02-11T19:10:00.530Z,5.10
2019-02-11T19:12:28.167Z,5.10
2019-02-11T19:14:55.805Z,5.30
2019-02-11T19:17:23.383Z,5.30
2019-02-11T19:19:51.209Z,5.30
2019-02-11T19:22:18.767Z,5.20
2019-02-11T19:24:46.608Z,5.40
2019-02-11T19:27:14.309Z,5.40
2019-02-11T19:29:41.850Z,5.50
2019-02-11T19:32:09.493Z,5.50
2019-02-11T19:34:37.056Z,5.60
2019-02-11T19:37:04.661Z,5.60
2019-02-11T19:39:32.275Z,5.70
2019-02-11T19:42:00.035Z,5.80
2019-02-11T19:44:27.607Z,5.90
2019-02-11T19:46:55.201Z,5.80
2019-02-11T19:49:22.780Z,5.90
2019-02-11T19:51:50.419Z,5.90
2019-02-11T19:54:18.215Z,5.90
2019-02-11T19:56:45.779Z,5.90
2019-02-11T19:59:13.436Z,5.90
2019-02-11T20:01:41.031Z,5.80
2019-02-11T20:04:08.637Z,5.90
2019-02-11T20:06:36.751Z,5.40
2019-02-11T20:09:04.473Z,6.00
2019-02-11T20:11:32.554Z,6.00
2019-02-11T20:14:00.253Z,6.00
2019-02-11T20:16:27.832Z,6.00
2019-02-11T20:18:55.734Z,6.00
2019-02-11T20:21:23.417Z,5.90
2019-02-11T20:23:51.038Z,6.00
2019-02-11T20:28:46.093Z,5.90
2019-02-11T20:31:13.864Z,6.00
2019-02-11T20:33:41.407Z,5.90
2019-02-11T20:36:09.053Z,5.90
2019-02-11T20:38:36.760Z,6.10
2019-02-11T20:41:04.353Z,5.90
2019-02-11T20:43:31.979Z,5.90
2019-02-11T20:45:59.679Z,5.90
2019-02-11T20:48:27.218Z,5.90
2019-02-11T20:50:54.754Z,5.90
2019-02-11T20:53:22.387Z,5.90
2019-02-11T20:55:50.069Z,5.90
2019-02-11T20:58:17.598Z,5.90
2019-02-11T21:00:45.198Z,5.90
2019-02-11T21:03:13.024Z,6.10
2019-02-11T21:05:40.659Z,6.00
2019-02-11T21:08:08.269Z,5.90
2019-02-11T21:10:36.013Z,5.80
2019-02-11T21:13:03.680Z,5.80
2019-02-11T21:15:31.381Z,5.80
2019-02-11T21:17:59.073Z,5.70
2019-02-11T21:20:29.942Z,5.70
2019-02-11T21:22:57.729Z,5.70
2019-02-11T21:25:25.300Z,6.40
2019-02-11T21:27:52.887Z,5.70
2019-02-11T21:30:20.598Z,5.70
2019-02-11T21:32:48.198Z,5.60
2019-02-11T21:35:15.756Z,5.70
2019-02-11T21:37:43.549Z,5.70
2019-02-11T21:40:11.264Z,5.70
2019-02-11T21:42:38.855Z,5.10
2019-02-11T21:45:07.606Z,5.70
2019-02-11T21:47:35.364Z,5.50
2019-02-11T21:50:03.365Z,5.50
2019-02-11T21:52:31.086Z,5.40
2019-02-11T21:54:58.695Z,5.40
2019-02-11T21:57:26.339Z,5.40
2019-02-11T21:59:53.915Z,5.20
2019-02-11T22:02:21.578Z,5.80
2019-02-11T22:04:49.283Z,5.20
2019-02-11T22:07:17.051Z,5.30
2019-02-11T22:09:44.650Z,5.30
2019-02-11T22:12:12.291Z,5.30
2019-02-11T22:14:39.985Z,5.40
2019-02-11T22:17:07.740Z,5.40
2019-02-11T22:19:35.305Z,5.50
2019-02-11T22:22:02.932Z,5.50
2019-02-11T22:24:30.739Z,5.50
2019-02-11T22:26:58.498Z,5.50
2019-02-11T22:29:26.096Z,5.50
2019-02-11T22:31:53.738Z,5.50
2019-02-11T22:36:48.727Z,5.70
2019-02-11T22:39:16.236Z,5.80
2019-02-11T22:41:43.839Z,5.70
2019-02-11T22:44:11.450Z,5.60
2019-02-11T22:46:39.019Z,5.60
2019-02-11T22:49:06.651Z,5.60
2019-02-11T22:51:35.524Z,5.50
2019-02-11T22:54:03.267Z,5.50
2019-02-11T22:56:30.898Z,5.50
2019-02-11T22:58:58.523Z,5.50
2019-02-11T23:01:26.370Z,5.50
2019-02-11T23:03:54.045Z,5.40
2019-02-11T23:06:21.951Z,5.30
2019-02-11T23:08:50.114Z,5.40
2019-02-11T23:11:18.039Z,7.20
2019-02-11T23:13:45.917Z,5.30
2019-02-11T23:16:15.158Z,5.30
2019-02-11T23:18:43.316Z,5.10
2019-02-11T23:21:13.091Z,5.20
2019-02-11T23:24:04.791Z,5.10
2019-02-11T23:26:32.697Z,5.10
2019-02-11T23:29:02.982Z,5.10
2019-02-11T23:31:30.702Z,4.80
2019-02-11T23:33:58.973Z,4.60
2019-02-11T23:36:27.132Z,4.50
2019-02-11T23:38:55.429Z,4.30
2019-02-11T23:41:23.213Z,4.30
2019-02-11T23:43:51.070Z,4.10
2019-02-11T23:46:18.737Z,4.10
2019-02-11T23:48:46.585Z,4.20
2019-02-11T23:53:42.226Z,4.20
2019-02-11T23:58:37.373Z,4.40
